createdAt,value
2022-11-13T00:01:25.553Z,11.13
2022-11-13T00:04:11.425Z,11.80
2022-11-13T00:06:59.615Z,12.25
2022-11-13T00:09:45.665Z,13.52
2022-11-13T00:12:31.873Z,9.25
2022-11-13T00:15:18.270Z,11.93
2022-11-13T00:18:04.844Z,14.55
2022-11-13T00:20:51.448Z,10.75
2022-11-13T00:23:38.055Z,15.93
2022-11-13T00:26:28.032Z,9.68
2022-11-13T00:29:14.536Z,10.25
2022-11-13T00:32:00.396Z,12.07
2022-11-13T00:34:48.350Z,13.85
2022-11-13T00:37:34.877Z,13.57
2022-11-13T00:40:21.484Z,12.90
2022-11-13T00:43:07.161Z,14.65
2022-11-13T00:45:54.235Z,11.60
2022-11-13T00:48:40.069Z,12.57
2022-11-13T00:51:26.281Z,11.23
2022-11-13T00:54:12.168Z,13.45
2022-11-13T00:56:58.807Z,14.57
2022-11-13T00:59:44.614Z,14.23
2022-11-13T01:02:30.854Z,11.77
2022-11-13T01:05:16.821Z,10.23
2022-11-13T01:08:04.092Z,12.32
2022-11-13T01:10:53.568Z,11.15
2022-11-13T01:13:42.199Z,11.40
2022-11-13T01:16:28.780Z,11.68
2022-11-13T01:19:15.373Z,8.82
2022-11-13T01:22:01.297Z,10.77
2022-11-13T01:24:47.458Z,10.75
2022-11-13T01:27:36.965Z,11.07
2022-11-13T01:30:24.146Z,10.30
2022-11-13T01:33:10.149Z,10.27
2022-11-13T01:36:11.164Z,10.10
2022-11-13T01:38:57.826Z,10.52
2022-11-13T01:41:43.728Z,12.02
2022-11-13T01:44:51.637Z,8.82
2022-11-13T01:47:37.787Z,11.10
2022-11-13T01:50:23.693Z,13.68
2022-11-13T01:53:10.230Z,13.90
2022-11-13T01:55:56.939Z,15.68
2022-11-13T01:58:48.824Z,11.70
2022-11-13T02:01:35.238Z,10.82
2022-11-13T02:04:23.432Z,12.50
2022-11-13T02:07:14.381Z,17.58
2022-11-13T02:10:01.332Z,11.60
2022-11-13T02:12:52.098Z,14.48
2022-11-13T02:15:40.561Z,13.13
2022-11-13T02:18:30.288Z,14.93
2022-11-13T02:21:48.345Z,14.95
2022-11-13T02:24:44.846Z,12.63
2022-11-13T02:27:42.740Z,12.07
2022-11-13T02:30:32.255Z,14.13
2022-11-13T02:33:31.714Z,17.17
2022-11-13T02:36:21.234Z,14.70
2022-11-13T02:39:12.877Z,15.75
2022-11-13T02:41:59.391Z,13.10
2022-11-13T02:44:45.590Z,10.25
2022-11-13T02:47:32.788Z,17.83
2022-11-13T02:50:19.158Z,13.52
2022-11-13T02:53:06.209Z,14.20
2022-11-13T02:55:52.760Z,15.45
2022-11-13T02:58:38.849Z,11.63
2022-11-13T03:01:25.529Z,10.50
2022-11-13T03:04:11.650Z,11.40
2022-11-13T03:06:57.714Z,9.32
2022-11-13T03:09:43.651Z,15.02
2022-11-13T03:12:29.810Z,9.82
2022-11-13T03:15:16.229Z,9.80
2022-11-13T03:18:12.518Z,12.75
2022-11-13T03:20:58.508Z,11.60
2022-11-13T03:23:45.393Z,11.77
2022-11-13T03:26:31.583Z,11.18
2022-11-13T03:29:17.694Z,10.55
2022-11-13T03:32:03.879Z,11.80
2022-11-13T03:34:50.225Z,11.70
2022-11-13T03:37:36.217Z,12.73
2022-11-13T03:40:22.274Z,8.55
2022-11-13T03:43:08.291Z,11.32
2022-11-13T03:45:54.878Z,10.68
2022-11-13T03:48:40.780Z,7.03
2022-11-13T03:51:26.872Z,12.90
2022-11-13T03:54:12.969Z,11.40
2022-11-13T03:56:59.743Z,10.73
2022-11-13T03:59:45.792Z,11.63
2022-11-13T04:02:32.287Z,9.80
2022-11-13T04:05:22.615Z,9.30
2022-11-13T04:08:09.949Z,13.50
2022-11-13T04:11:05.108Z,13.07
2022-11-13T04:13:51.444Z,13.68
2022-11-13T04:16:37.479Z,12.05
2022-11-13T04:19:23.631Z,13.15
2022-11-13T04:22:09.373Z,13.00
2022-11-13T04:24:55.668Z,9.93
2022-11-13T04:27:41.718Z,14.85
2022-11-13T04:30:27.827Z,10.32
2022-11-13T04:33:14.367Z,15.73
2022-11-13T04:36:01.662Z,13.02
2022-11-13T04:38:47.615Z,13.52
2022-11-13T04:41:55.292Z,14.80
2022-11-13T04:44:41.864Z,11.05
2022-11-13T04:47:27.890Z,9.68
2022-11-13T04:50:16.134Z,15.40
2022-11-13T04:53:02.507Z,12.17
2022-11-13T04:55:48.663Z,12.68
2022-11-13T04:58:34.673Z,12.00
2022-11-13T05:01:20.924Z,15.25
2022-11-13T05:04:07.441Z,11.25
2022-11-13T05:06:53.573Z,12.90
2022-11-13T05:09:40.363Z,13.77
2022-11-13T05:12:26.155Z,15.90
2022-11-13T05:15:12.667Z,19.30
2022-11-13T05:17:58.717Z,15.98
2022-11-13T05:20:44.772Z,13.13
2022-11-13T05:23:30.963Z,12.70
2022-11-13T05:26:17.489Z,15.63
2022-11-13T05:29:03.538Z,12.90
2022-11-13T05:31:49.719Z,13.25
2022-11-13T05:34:35.643Z,10.32
2022-11-13T05:37:22.377Z,14.27
2022-11-13T05:40:09.794Z,13.75
2022-11-13T05:42:56.635Z,12.13
2022-11-13T05:45:42.312Z,13.05
2022-11-13T05:48:29.572Z,13.48
2022-11-13T05:51:19.709Z,14.68
2022-11-13T05:54:06.438Z,11.55
2022-11-13T05:56:52.530Z,13.25
2022-11-13T05:59:38.652Z,8.65
2022-11-13T06:02:25.169Z,12.55
2022-11-13T06:05:11.743Z,12.27
2022-11-13T06:07:57.833Z,16.58
2022-11-13T06:10:44.804Z,13.95
2022-11-13T06:13:31.301Z,18.38
2022-11-13T06:16:30.077Z,20.42
2022-11-13T06:19:16.200Z,15.95
2022-11-13T06:22:02.401Z,21.95
2022-11-13T06:24:49.286Z,14.75
2022-11-13T06:27:35.581Z,14.18
2022-11-13T06:30:21.844Z,15.90
2022-11-13T06:33:07.987Z,18.40
2022-11-13T06:35:53.868Z,16.75
2022-11-13T06:38:41.272Z,17.52
2022-11-13T06:41:31.425Z,15.48
2022-11-13T06:44:17.536Z,15.98
2022-11-13T06:47:03.779Z,18.15
2022-11-13T06:49:50.394Z,16.77
2022-11-13T06:52:36.546Z,15.82
2022-11-13T06:55:22.699Z,15.95
2022-11-13T06:58:08.508Z,19.27
2022-11-13T07:00:54.927Z,27.38
2022-11-13T07:03:42.121Z,23.85
2022-11-13T07:06:28.164Z,20.27
2022-11-13T07:09:14.592Z,23.88
2022-11-13T07:12:00.859Z,17.60
2022-11-13T07:14:46.973Z,23.17
2022-11-13T07:17:33.430Z,17.90
2022-11-13T07:20:19.867Z,19.27
2022-11-13T07:23:06.373Z,22.02
2022-11-13T07:25:55.803Z,18.60
2022-11-13T07:28:42.396Z,14.85
2022-11-13T07:31:29.318Z,19.30
2022-11-13T07:34:15.600Z,18.45
2022-11-13T07:37:01.846Z,16.52
2022-11-13T07:39:48.093Z,17.85
2022-11-13T07:42:34.169Z,23.83
2022-11-13T07:45:20.523Z,17.45
2022-11-13T07:48:06.783Z,18.40
2022-11-13T07:50:53.550Z,19.23
2022-11-13T07:53:40.025Z,22.98
2022-11-13T07:56:26.321Z,17.50
2022-11-13T07:59:12.165Z,19.25
2022-11-13T08:01:59.021Z,25.00
2022-11-13T08:04:44.875Z,22.52
2022-11-13T08:07:31.740Z,23.10
2022-11-13T08:10:19.432Z,25.60
2022-11-13T08:13:09.868Z,31.92
2022-11-13T08:16:00.709Z,16.40
2022-11-13T08:18:47.200Z,21.35
2022-11-13T08:21:34.865Z,17.85
2022-11-13T08:24:21.065Z,19.95
2022-11-13T08:27:07.742Z,19.10
2022-11-13T08:29:53.920Z,21.60
2022-11-13T08:32:39.577Z,14.43
2022-11-13T08:35:29.426Z,28.17
2022-11-13T08:38:16.090Z,17.55
2022-11-13T08:41:08.930Z,19.73
2022-11-13T08:43:56.768Z,17.42
2022-11-13T08:46:43.268Z,13.00
2022-11-13T08:49:30.636Z,20.13
2022-11-13T08:52:17.347Z,18.65
2022-11-13T08:55:03.585Z,19.33
2022-11-13T08:57:51.091Z,16.52
2022-11-13T09:00:37.514Z,13.35
2022-11-13T09:03:23.793Z,16.45
2022-11-13T09:06:10.316Z,14.45
2022-11-13T09:08:56.814Z,17.88
2022-11-13T09:11:43.203Z,15.05
2022-11-13T09:14:29.402Z,18.38
2022-11-13T09:17:15.533Z,15.23
2022-11-13T09:20:04.217Z,17.42
2022-11-13T09:23:01.232Z,16.02
2022-11-13T09:25:47.447Z,16.77
2022-11-13T09:28:33.715Z,14.18
2022-11-13T09:31:20.228Z,18.65
2022-11-13T09:34:06.503Z,13.60
2022-11-13T09:36:54.070Z,14.23
2022-11-13T09:39:42.147Z,17.73
2022-11-13T09:42:31.296Z,16.87
2022-11-13T09:45:17.793Z,13.18
2022-11-13T09:48:38.190Z,23.40
2022-11-13T09:51:37.286Z,18.20
2022-11-13T09:54:23.910Z,16.77
2022-11-13T09:57:34.050Z,18.23
2022-11-13T10:00:22.500Z,27.00
2022-11-13T10:03:59.953Z,21.85
2022-11-13T10:07:20.079Z,14.40
2022-11-13T10:10:22.414Z,13.77
2022-11-13T10:13:15.861Z,17.63
2022-11-13T10:16:19.340Z,18.15
2022-11-13T10:19:37.618Z,15.18
2022-11-13T10:23:04.628Z,13.88
2022-11-13T10:25:52.511Z,14.25
2022-11-13T10:28:55.787Z,16.08
2022-11-13T10:31:52.214Z,14.30
2022-11-13T10:34:38.939Z,12.35
2022-11-13T10:38:08.555Z,12.63
2022-11-13T10:41:13.897Z,14.27
2022-11-13T10:44:17.896Z,11.57
2022-11-13T10:47:56.950Z,11.43
2022-11-13T10:50:33.658Z,9.35
2022-11-13T10:53:20.684Z,9.85
2022-11-13T10:56:32.519Z,9.60
2022-11-13T10:59:20.390Z,11.70
2022-11-13T11:02:22.955Z,9.15
2022-11-13T11:05:19.755Z,10.65
2022-11-13T11:08:10.952Z,11.77
2022-11-13T11:11:20.461Z,15.18
2022-11-13T11:14:28.627Z,8.90
2022-11-13T11:17:18.605Z,9.35
2022-11-13T11:20:16.924Z,8.90
2022-11-13T11:23:23.759Z,10.95
2022-11-13T11:26:35.705Z,9.77
2022-11-13T11:29:44.991Z,15.82
2022-11-13T11:32:49.182Z,11.05
2022-11-13T11:35:48.538Z,11.20
2022-11-13T11:39:13.089Z,7.97
2022-11-13T11:42:46.013Z,12.00
2022-11-13T11:45:46.379Z,15.05
2022-11-13T11:48:33.218Z,11.50
2022-11-13T11:52:11.165Z,9.98
2022-11-13T11:55:31.783Z,13.27
2022-11-13T11:59:20.709Z,11.43
2022-11-13T12:02:06.472Z,8.67
2022-11-13T12:05:24.853Z,9.75
2022-11-13T12:08:41.334Z,11.40
2022-11-13T12:11:36.429Z,11.48
2022-11-13T12:14:34.000Z,24.70
2022-11-13T12:17:58.257Z,38.45
2022-11-13T12:20:56.572Z,20.52
2022-11-13T12:24:19.895Z,11.00
2022-11-13T12:28:04.190Z,16.17
2022-11-13T12:31:14.160Z,17.38
2022-11-13T12:34:14.111Z,41.90
2022-11-13T12:37:03.512Z,90.65
2022-11-13T12:40:04.140Z,104.30
2022-11-13T12:43:27.134Z,128.40
2022-11-13T12:46:13.904Z,87.85
2022-11-13T12:49:01.111Z,37.13
2022-11-13T12:51:57.958Z,40.78
2022-11-13T12:54:45.362Z,28.45
2022-11-13T12:57:32.670Z,30.48
2022-11-13T13:00:27.336Z,14.00
2022-11-13T13:03:38.410Z,19.98
2022-11-13T13:07:13.278Z,10.10
2022-11-13T13:10:49.972Z,16.55
2022-11-13T13:14:08.829Z,15.52
2022-11-13T13:20:37.175Z,10.20
2022-11-13T13:23:53.488Z,10.52
2022-11-13T13:29:34.159Z,9.57
2022-11-13T13:32:28.837Z,8.85
2022-11-13T13:35:29.872Z,13.18
2022-11-13T13:38:29.811Z,8.45
2022-11-13T13:41:43.840Z,8.93
2022-11-13T13:45:03.839Z,9.40
2022-11-13T13:47:58.200Z,10.63
2022-11-13T13:50:48.507Z,11.68
2022-11-13T13:53:37.666Z,14.55
2022-11-13T13:56:25.799Z,9.15
2022-11-13T13:59:34.436Z,10.80
2022-11-13T14:02:23.668Z,13.52
2022-11-13T14:08:20.279Z,11.43
2022-11-13T14:11:22.873Z,11.35
2022-11-13T14:14:23.609Z,11.82
2022-11-13T14:17:12.033Z,15.60
2022-11-13T14:20:01.136Z,11.70
2022-11-13T14:22:55.379Z,12.50
2022-11-13T14:25:44.805Z,11.80
2022-11-13T14:28:34.998Z,13.50
2022-11-13T14:31:32.699Z,17.08
2022-11-13T14:34:23.950Z,17.70
2022-11-13T14:37:39.269Z,15.82
2022-11-13T14:40:33.993Z,18.30
2022-11-13T14:43:31.947Z,20.75
2022-11-13T14:46:45.478Z,18.35
2022-11-13T14:49:36.236Z,22.45
2022-11-13T14:52:25.760Z,18.70
2022-11-13T14:55:30.646Z,16.02
2022-11-13T14:58:35.090Z,18.48
2022-11-13T15:01:25.127Z,20.52
2022-11-13T15:07:04.166Z,19.40
2022-11-13T15:09:50.744Z,28.23
2022-11-13T15:12:37.105Z,30.90
2022-11-13T15:15:28.985Z,32.90
2022-11-13T15:18:19.756Z,36.22
2022-11-13T15:21:06.794Z,32.95
2022-11-13T15:23:53.044Z,56.22
2022-11-13T15:26:40.328Z,51.90
2022-11-13T15:29:26.493Z,48.97
2022-11-13T15:32:14.919Z,48.80
2022-11-13T15:35:00.974Z,49.55
2022-11-13T15:37:47.278Z,39.90
2022-11-13T15:40:33.394Z,39.50
2022-11-13T15:43:20.479Z,32.88
2022-11-13T15:46:13.069Z,59.40
2022-11-13T15:48:58.969Z,52.15
2022-11-13T15:51:48.498Z,44.25
2022-11-13T15:57:28.382Z,42.25
2022-11-13T16:00:26.972Z,44.28
2022-11-13T16:06:00.476Z,52.45
2022-11-13T16:08:48.243Z,46.20
2022-11-13T16:11:35.073Z,47.72
2022-11-13T16:14:25.013Z,39.03
2022-11-13T16:17:20.974Z,40.72
2022-11-13T16:20:12.718Z,44.67
2022-11-13T16:22:58.384Z,38.88
2022-11-13T16:25:47.283Z,40.67
2022-11-13T16:28:41.963Z,35.70
2022-11-13T16:31:39.370Z,39.67
2022-11-13T16:34:25.834Z,42.50
2022-11-13T16:37:30.412Z,42.08
2022-11-13T16:40:22.759Z,41.35
2022-11-13T16:43:11.425Z,35.83
2022-11-13T16:46:00.769Z,29.95
2022-11-13T16:48:48.400Z,29.02
2022-11-13T16:51:34.550Z,32.55
2022-11-13T16:54:20.642Z,31.63
2022-11-13T16:57:09.037Z,30.77
2022-11-13T16:59:55.651Z,34.22
2022-11-13T17:02:42.275Z,40.80
2022-11-13T17:05:29.174Z,35.50
2022-11-13T17:08:15.231Z,43.22
2022-11-13T17:11:03.980Z,42.53
2022-11-13T17:13:55.906Z,30.75
2022-11-13T17:16:42.448Z,29.20
2022-11-13T17:19:28.519Z,29.90
2022-11-13T17:22:17.127Z,26.42
2022-11-13T17:25:04.047Z,34.13
2022-11-13T17:27:50.574Z,32.20
2022-11-13T17:30:36.713Z,33.10
2022-11-13T17:33:23.003Z,31.85
2022-11-13T17:36:13.808Z,37.40
2022-11-13T17:39:00.345Z,28.52
2022-11-13T17:41:46.613Z,27.05
2022-11-13T17:44:33.052Z,28.17
2022-11-13T17:47:18.852Z,24.02
2022-11-13T17:50:07.938Z,28.08
2022-11-13T17:52:53.995Z,33.53
2022-11-13T17:55:41.067Z,35.45
2022-11-13T17:58:31.071Z,30.90
2022-11-13T18:01:23.410Z,28.75
2022-11-13T18:04:11.326Z,34.63
2022-11-13T18:06:59.089Z,37.83
2022-11-13T18:09:45.352Z,37.22
2022-11-13T18:12:31.601Z,38.17
2022-11-13T18:15:20.638Z,31.30
2022-11-13T18:18:08.663Z,26.40
2022-11-13T18:20:58.162Z,23.67
2022-11-13T18:23:45.181Z,23.60
2022-11-13T18:26:32.420Z,28.23
2022-11-13T18:29:19.244Z,25.95
2022-11-13T18:32:05.426Z,29.52
2022-11-13T18:34:51.714Z,26.13
2022-11-13T18:37:38.098Z,27.42
2022-11-13T18:40:24.512Z,29.73
2022-11-13T18:43:12.667Z,29.83
2022-11-13T18:46:07.039Z,31.30
2022-11-13T18:48:55.513Z,35.95
2022-11-13T18:51:43.241Z,38.55
2022-11-13T18:54:29.742Z,35.15
2022-11-13T18:57:17.389Z,39.05
2022-11-13T19:00:04.824Z,37.75
2022-11-13T19:02:55.825Z,34.60
2022-11-13T19:05:48.474Z,37.00
2022-11-13T19:08:40.567Z,37.17
2022-11-13T19:11:28.920Z,40.03
2022-11-13T19:14:17.339Z,44.20
2022-11-13T19:17:03.458Z,51.70
2022-11-13T19:19:50.190Z,56.63
2022-11-13T19:22:36.609Z,49.47
2022-11-13T19:25:23.076Z,49.35
2022-11-13T19:28:09.493Z,49.03
2022-11-13T19:30:55.774Z,46.25
2022-11-13T19:33:41.936Z,48.17
2022-11-13T19:36:31.274Z,53.92
2022-11-13T19:39:18.210Z,52.25
2022-11-13T19:42:04.757Z,47.55
2022-11-13T19:44:50.701Z,50.97
2022-11-13T19:47:36.862Z,53.58
2022-11-13T19:50:23.221Z,60.33
2022-11-13T19:53:10.990Z,55.30
2022-11-13T19:55:57.076Z,55.08
2022-11-13T19:58:44.914Z,53.03
2022-11-13T20:01:32.289Z,58.08
2022-11-13T20:04:21.627Z,61.95
2022-11-13T20:07:07.896Z,43.83
2022-11-13T20:09:54.948Z,48.92
2022-11-13T20:12:41.449Z,42.35
2022-11-13T20:15:28.252Z,40.83
2022-11-13T20:18:14.512Z,43.90
2022-11-13T20:21:01.569Z,42.78
2022-11-13T20:23:49.535Z,41.63
2022-11-13T20:26:36.319Z,43.83
2022-11-13T20:29:22.253Z,41.72
2022-11-13T20:32:10.857Z,47.45
2022-11-13T20:34:56.742Z,36.53
2022-11-13T20:37:43.454Z,38.47
2022-11-13T20:40:29.847Z,40.13
2022-11-13T20:43:16.656Z,38.63
2022-11-13T20:46:13.435Z,41.42
2022-11-13T20:49:01.112Z,39.55
2022-11-13T20:51:47.794Z,42.13
2022-11-13T20:54:34.276Z,36.70
2022-11-13T20:57:22.612Z,41.40
2022-11-13T21:00:10.720Z,41.73
2022-11-13T21:02:57.481Z,37.20
2022-11-13T21:05:47.313Z,44.80
2022-11-13T21:08:33.443Z,45.60
2022-11-13T21:11:22.167Z,46.17
2022-11-13T21:14:10.322Z,42.63
2022-11-13T21:16:56.828Z,36.13
2022-11-13T21:19:42.926Z,40.95
2022-11-13T21:22:29.369Z,35.17
2022-11-13T21:25:17.674Z,34.80
2022-11-13T21:28:04.438Z,33.33
2022-11-13T21:30:50.409Z,31.83
2022-11-13T21:33:42.684Z,36.00
2022-11-13T21:36:30.173Z,33.78
2022-11-13T21:39:16.565Z,36.22
2022-11-13T21:42:02.503Z,35.05
2022-11-13T21:44:48.507Z,37.13
2022-11-13T21:47:34.670Z,40.53
2022-11-13T21:50:21.033Z,41.15
2022-11-13T21:53:07.139Z,37.63
2022-11-13T21:55:53.742Z,36.55
2022-11-13T21:58:41.313Z,39.17
2022-11-13T22:01:29.047Z,45.10
2022-11-13T22:04:17.284Z,37.55
2022-11-13T22:07:04.369Z,32.50
2022-11-13T22:09:50.190Z,29.27
2022-11-13T22:12:36.423Z,35.03
2022-11-13T22:15:22.517Z,31.00
2022-11-13T22:18:09.142Z,35.30
2022-11-13T22:21:04.951Z,34.10
2022-11-13T22:23:51.730Z,31.65
2022-11-13T22:26:45.456Z,29.20
2022-11-13T22:29:32.060Z,30.88
2022-11-13T22:32:18.284Z,29.60
2022-11-13T22:35:05.130Z,32.72
2022-11-13T22:37:51.371Z,29.42
2022-11-13T22:40:37.506Z,32.65
2022-11-13T22:43:23.485Z,31.35
2022-11-13T22:46:18.636Z,33.75
2022-11-13T22:49:06.265Z,28.02
2022-11-13T22:51:52.839Z,32.67
2022-11-13T22:54:39.127Z,33.42
2022-11-13T22:57:25.505Z,28.92
2022-11-13T23:00:12.768Z,28.23
2022-11-13T23:03:00.944Z,32.30
2022-11-13T23:05:46.907Z,34.78
2022-11-13T23:08:38.764Z,38.13
2022-11-13T23:11:38.332Z,39.55
2022-11-13T23:14:24.935Z,38.28
2022-11-13T23:17:11.041Z,35.45
2022-11-13T23:19:57.153Z,33.83
2022-11-13T23:22:43.040Z,31.63
2022-11-13T23:25:29.386Z,33.95
2022-11-13T23:28:15.802Z,36.13
2022-11-13T23:31:03.051Z,35.70
2022-11-13T23:33:48.927Z,33.38
2022-11-13T23:36:35.222Z,35.25
2022-11-13T23:39:21.014Z,32.38
2022-11-13T23:42:07.776Z,35.75
2022-11-13T23:44:53.578Z,34.42
2022-11-13T23:47:39.580Z,37.35
2022-11-13T23:50:25.832Z,35.78
2022-11-13T23:53:13.073Z,34.97
2022-11-13T23:55:59.525Z,36.80
2022-11-13T23:58:45.636Z,35.67
